KRDG

Reading Regional / Carl A Spaatz Field Airport

Reading, Pennsylvania, USA
KRDG 181134Z 1812/1912 VRB03KT P6SM SCT250 FM181500 24007KT P6SM SCT150 FM182000 24010KT P6SM BKN060 FM190000 22006KT P6SM SCT080 FM190600 27005KT P6SM BKN060 FM191000 29007KT P6SM BKN045
Issued Valid From Valid To
Jun-18 @ 11:34 UTC
(2 hours ago)
Jun-18 @ 12:00 UTC
(an hour ago)
Jun-19 @ 12:00 UTC
(in 23 hours)
Jun-18 @ 12:00 to Jun-18 @ 15:00
KRDG 181134Z 1812/1912 VRB03KT P6SM SCT250
Wind Visibility Clouds
Variable at 3 knots Greater than 6 miles
  • Scattered at 25,000' AGL
From Jun-18 @ 15:00 to Jun-18 @ 20:00
FM181500 24007KT P6SM SCT150
Wind Visibility Clouds
240° at 7 knots Greater than 6 miles
  • Scattered at 15,000' AGL
From Jun-18 @ 20:00 to Jun-19 @ 00:00
FM182000 24010KT P6SM BKN060
Wind Visibility Clouds
240° at 10 knots Greater than 6 miles
  • Broken at 6,000' AGL
From Jun-19 @ 00:00 to Jun-19 @ 06:00
FM190000 22006KT P6SM SCT080
Wind Visibility Clouds
220° at 6 knots Greater than 6 miles
  • Scattered at 8,000' AGL
From Jun-19 @ 06:00 to Jun-19 @ 10:00
FM190600 27005KT P6SM BKN060
Wind Visibility Clouds
270° at 5 knots Greater than 6 miles
  • Broken at 6,000' AGL
From Jun-19 @ 10:00 to Jun-19 @ 12:00
FM191000 29007KT P6SM BKN045
Wind Visibility Clouds
290° at 7 knots Greater than 6 miles
  • Broken at 4,500' AGL
KRDG 181134Z 1812/1912 VRB03KT P6SM SCT250 FM181500 24007KT P6SM SCT150 FM182000 24010KT P6SM BKN060 FM190000 22006KT P6SM SCT080 FM190600 27005KT P6SM BKN060 FM191000 29007KT P6SM BKN045
Issued Jun-18 @ 11:34 UTC
(2 hours ago)
Valid From Jun-18 @ 12:00 UTC
(an hour ago)
Valid To Jun-19 @ 12:00 UTC
(in 23 hours)
Jun-18 @ 12:00 - Jun-18 @ 15:00
Wind Visibility
Variable at 3 knots Greater than 6 miles
Clouds
  • Scattered at 25,000' AGL
From Jun-18 @ 15:00 - Jun-18 @ 20:00
Wind Visibility
240° at 7 knots Greater than 6 miles
Clouds
  • Scattered at 15,000' AGL
From Jun-18 @ 20:00 - Jun-19 @ 00:00
Wind Visibility
240° at 10 knots Greater than 6 miles
Clouds
  • Broken at 6,000' AGL
From Jun-19 @ 00:00 - Jun-19 @ 06:00
Wind Visibility
220° at 6 knots Greater than 6 miles
Clouds
  • Scattered at 8,000' AGL
From Jun-19 @ 06:00 - Jun-19 @ 10:00
Wind Visibility
270° at 5 knots Greater than 6 miles
Clouds
  • Broken at 6,000' AGL
From Jun-19 @ 10:00 - Jun-19 @ 12:00
Wind Visibility
290° at 7 knots Greater than 6 miles
Clouds
  • Broken at 4,500' AGL